sensor_id;sensor_type;location;lat;lon;timestamp;pressure;altitude;pressure_sealevel;temperature;humidity
71344;BME280;59146;43.850;25.948;2024-03-07T00:00:07;101279.66;;;7.64;51.82
71344;BME280;59146;43.850;25.948;2024-03-07T00:02:40;101167.72;;;6.97;52.07
71344;BME280;59146;43.850;25.948;2024-03-07T00:05:06;101261.56;;;7.61;51.98
71344;BME280;59146;43.850;25.948;2024-03-07T00:07:33;101255.00;;;7.51;51.97
71344;BME280;59146;43.850;25.948;2024-03-07T00:09:58;101310.03;;;7.86;52.10
71344;BME280;59146;43.850;25.948;2024-03-07T00:12:24;101303.97;;;7.86;52.29
71344;BME280;59146;43.850;25.948;2024-03-07T00:14:49;101139.78;;;6.79;52.15
71344;BME280;59146;43.850;25.948;2024-03-07T00:17:14;101275.94;;;7.46;52.67
71344;BME280;59146;43.850;25.948;2024-03-07T00:19:40;101319.91;;;7.77;52.81
71344;BME280;59146;43.850;25.948;2024-03-07T00:22:05;101202.88;;;7.06;52.94
71344;BME280;59146;43.850;25.948;2024-03-07T00:24:31;101320.59;;;7.82;52.84
71344;BME280;59146;43.850;25.948;2024-03-07T00:26:56;101315.94;;;7.67;53.15
71344;BME280;59146;43.850;25.948;2024-03-07T00:29:22;101294.25;;;7.68;53.15
71344;BME280;59146;43.850;25.948;2024-03-07T00:31:49;101299.75;;;7.59;53.08
71344;BME280;59146;43.850;25.948;2024-03-07T00:34:15;101231.47;;;7.31;53.16
71344;BME280;59146;43.850;25.948;2024-03-07T00:36:45;101240.56;;;7.42;52.84
71344;BME280;59146;43.850;25.948;2024-03-07T00:39:11;101271.31;;;7.54;53.13
71344;BME280;59146;43.850;25.948;2024-03-07T00:41:40;101276.72;;;7.50;53.55
71344;BME280;59146;43.850;25.948;2024-03-07T00:44:09;101230.69;;;7.29;53.42
71344;BME280;59146;43.850;25.948;2024-03-07T00:46:37;101311.59;;;7.90;52.78
71344;BME280;59146;43.850;25.948;2024-03-07T00:49:04;101262.69;;;7.54;53.20
71344;BME280;59146;43.850;25.948;2024-03-07T00:51:30;101220.59;;;7.19;53.70
71344;BME280;59146;43.850;25.948;2024-03-07T00:53:56;101283.38;;;7.57;54.11
71344;BME280;59146;43.850;25.948;2024-03-07T00:56:21;101268.38;;;7.40;54.23
71344;BME280;59146;43.850;25.948;2024-03-07T00:58:50;101258.47;;;7.27;54.52
71344;BME280;59146;43.850;25.948;2024-03-07T01:01:16;101285.94;;;7.34;55.46
71344;BME280;59146;43.850;25.948;2024-03-07T01:03:42;101225.84;;;6.93;55.10
71344;BME280;59146;43.850;25.948;2024-03-07T01:06:08;101276.97;;;7.17;55.72
71344;BME280;59146;43.850;25.948;2024-03-07T01:08:35;101184.44;;;6.64;55.45
71344;BME280;59146;43.850;25.948;2024-03-07T01:11:02;101285.34;;;7.26;55.55
71344;BME280;59146;43.850;25.948;2024-03-07T01:13:35;101262.53;;;7.09;55.70
71344;BME280;59146;43.850;25.948;2024-03-07T01:16:01;101290.06;;;7.14;55.89
71344;BME280;59146;43.850;25.948;2024-03-07T01:18:26;101287.44;;;7.14;55.81
71344;BME280;59146;43.850;25.948;2024-03-07T01:20:51;101291.69;;;7.17;56.24
71344;BME280;59146;43.850;25.948;2024-03-07T01:23:17;101238.34;;;6.82;56.47
71344;BME280;59146;43.850;25.948;2024-03-07T01:25:42;101218.09;;;6.67;56.22
71344;BME280;59146;43.850;25.948;2024-03-07T01:28:08;101248.69;;;6.84;56.49
71344;BME280;59146;43.850;25.948;2024-03-07T01:30:37;101225.09;;;6.65;56.82
71344;BME280;59146;43.850;25.948;2024-03-07T01:33:03;101292.34;;;6.99;56.72
71344;BME280;59146;43.850;25.948;2024-03-07T01:35:28;101300.06;;;7.00;57.11
71344;BME280;59146;43.850;25.948;2024-03-07T01:37:54;101289.78;;;6.97;57.25
71344;BME280;59146;43.850;25.948;2024-03-07T01:40:20;101267.72;;;6.84;57.38
71344;BME280;59146;43.850;25.948;2024-03-07T01:42:49;101117.69;;;5.91;57.46
71344;BME280;59146;43.850;25.948;2024-03-07T01:45:16;101226.16;;;6.58;57.56
71344;BME280;59146;43.850;25.948;2024-03-07T01:47:44;101278.09;;;6.84;57.65
71344;BME280;59146;43.850;25.948;2024-03-07T01:50:09;101197.81;;;6.52;57.61
71344;BME280;59146;43.850;25.948;2024-03-07T01:52:36;101286.66;;;7.12;56.95
71344;BME280;59146;43.850;25.948;2024-03-07T01:55:04;101297.31;;;7.05;57.31
71344;BME280;59146;43.850;25.948;2024-03-07T01:57:30;101224.38;;;6.86;56.52
71344;BME280;59146;43.850;25.948;2024-03-07T01:59:56;101294.41;;;7.39;56.25
71344;BME280;59146;43.850;25.948;2024-03-07T02:02:22;101257.34;;;7.34;55.61
71344;BME280;59146;43.850;25.948;2024-03-07T02:04:47;101258.06;;;7.12;56.29
71344;BME280;59146;43.850;25.948;2024-03-07T02:07:13;101211.91;;;6.71;56.87
71344;BME280;59146;43.850;25.948;2024-03-07T02:09:38;101218.53;;;6.80;56.81
71344;BME280;59146;43.850;25.948;2024-03-07T02:12:04;101227.34;;;7.00;56.69
71344;BME280;59146;43.850;25.948;2024-03-07T02:14:30;101247.84;;;7.08;56.43
71344;BME280;59146;43.850;25.948;2024-03-07T02:16:55;101150.41;;;6.21;57.68
71344;BME280;59146;43.850;25.948;2024-03-07T02:19:24;101289.88;;;6.94;58.12
71344;BME280;59146;43.850;25.948;2024-03-07T02:21:49;101124.97;;;6.06;58.28
71344;BME280;59146;43.850;25.948;2024-03-07T02:24:15;101199.13;;;6.65;57.56
71344;BME280;59146;43.850;25.948;2024-03-07T02:26:41;101298.19;;;7.05;63.53
71344;BME280;59146;43.850;25.948;2024-03-07T02:29:07;101228.84;;;6.29;63.75
71344;BME280;59146;43.850;25.948;2024-03-07T02:31:32;101224.66;;;6.25;62.92
71344;BME280;59146;43.850;25.948;2024-03-07T02:34:03;101252.97;;;6.32;61.81
71344;BME280;59146;43.850;25.948;2024-03-07T02:36:28;101310.34;;;6.51;62.17
71344;BME280;59146;43.850;25.948;2024-03-07T02:38:54;101262.00;;;5.92;66.96
71344;BME280;59146;43.850;25.948;2024-03-07T02:41:19;101286.91;;;5.67;70.63
71344;BME280;59146;43.850;25.948;2024-03-07T02:43:45;101253.75;;;5.47;71.62
71344;BME280;59146;43.850;25.948;2024-03-07T02:46:10;101265.38;;;5.32;74.29
71344;BME280;59146;43.850;25.948;2024-03-07T02:48:37;101256.09;;;5.25;75.73
71344;BME280;59146;43.850;25.948;2024-03-07T02:51:04;101250.34;;;5.14;76.13
71344;BME280;59146;43.850;25.948;2024-03-07T02:53:33;101254.66;;;5.15;76.63
71344;BME280;59146;43.850;25.948;2024-03-07T02:55:58;101300.41;;;5.13;77.37
71344;BME280;59146;43.850;25.948;2024-03-07T02:58:24;101260.50;;;4.90;77.52
71344;BME280;59146;43.850;25.948;2024-03-07T03:00:59;101318.97;;;5.30;75.46
71344;BME280;59146;43.850;25.948;2024-03-07T03:03:25;101292.22;;;4.98;75.11
71344;BME280;59146;43.850;25.948;2024-03-07T03:05:51;101267.06;;;4.69;75.61
71344;BME280;59146;43.850;25.948;2024-03-07T03:08:16;101327.44;;;5.03;73.57
71344;BME280;59146;43.850;25.948;2024-03-07T03:10:43;101326.78;;;4.95;73.44
71344;BME280;59146;43.850;25.948;2024-03-07T03:13:09;101179.00;;;4.01;73.85
71344;BME280;59146;43.850;25.948;2024-03-07T03:15:35;101310.09;;;4.73;73.33
71344;BME280;59146;43.850;25.948;2024-03-07T03:18:00;101308.47;;;4.69;73.19
71344;BME280;59146;43.850;25.948;2024-03-07T03:20:26;101249.75;;;4.34;72.94
71344;BME280;59146;43.850;25.948;2024-03-07T03:22:59;101274.38;;;4.50;73.22
71344;BME280;59146;43.850;25.948;2024-03-07T03:25:24;101254.78;;;4.42;73.30
71344;BME280;59146;43.850;25.948;2024-03-07T03:27:50;101236.56;;;4.45;72.75
71344;BME280;59146;43.850;25.948;2024-03-07T03:30:16;101255.38;;;4.51;72.51
71344;BME280;59146;43.850;25.948;2024-03-07T03:32:50;101247.00;;;4.42;72.49
71344;BME280;59146;43.850;25.948;2024-03-07T03:35:15;101304.91;;;4.73;72.96
71344;BME280;59146;43.850;25.948;2024-03-07T03:37:44;101295.69;;;4.61;73.10
71344;BME280;59146;43.850;25.948;2024-03-07T03:40:10;101268.56;;;4.41;73.04
71344;BME280;59146;43.850;25.948;2024-03-07T03:42:40;101238.69;;;4.28;72.72
71344;BME280;59146;43.850;25.948;2024-03-07T03:45:07;101294.63;;;4.70;72.97
71344;BME280;59146;43.850;25.948;2024-03-07T03:47:34;101279.63;;;4.82;71.23
71344;BME280;59146;43.850;25.948;2024-03-07T03:50:04;101243.63;;;4.38;71.79
71344;BME280;59146;43.850;25.948;2024-03-07T03:52:29;101307.34;;;4.79;71.84
71344;BME280;59146;43.850;25.948;2024-03-07T03:54:56;101254.75;;;4.77;70.72
71344;BME280;59146;43.850;25.948;2024-03-07T03:57:22;101255.25;;;4.57;70.75
71344;BME280;59146;43.850;25.948;2024-03-07T03:59:48;101269.94;;;4.55;71.31
71344;BME280;59146;43.850;25.948;2024-03-07T04:02:13;101328.56;;;4.93;71.13
71344;BME280;59146;43.850;25.948;2024-03-07T04:04:39;101287.41;;;4.82;70.46
71344;BME280;59146;43.850;25.948;2024-03-07T04:07:05;101281.06;;;4.59;70.66
71344;BME280;59146;43.850;25.948;2024-03-07T04:09:31;101336.94;;;4.67;72.31
71344;BME280;59146;43.850;25.948;2024-03-07T04:11:57;101315.81;;;4.49;72.70
71344;BME280;59146;43.850;25.948;2024-03-07T04:14:23;101255.06;;;3.91;73.42
71344;BME280;59146;43.850;25.948;2024-03-07T04:16:48;101299.38;;;4.13;74.12
71344;BME280;59146;43.850;25.948;2024-03-07T04:19:14;101266.88;;;4.01;73.69
71344;BME280;59146;43.850;25.948;2024-03-07T04:21:39;101290.84;;;4.10;74.21
71344;BME280;59146;43.850;25.948;2024-03-07T04:24:05;101331.13;;;4.20;74.57
71344;BME280;59146;43.850;25.948;2024-03-07T04:26:30;101241.81;;;3.65;74.35
71344;BME280;59146;43.850;25.948;2024-03-07T04:28:56;101279.47;;;3.77;74.88
71344;BME280;59146;43.850;25.948;2024-03-07T04:31:23;101308.44;;;3.92;74.82
71344;BME280;59146;43.850;25.948;2024-03-07T04:33:49;101325.50;;;4.01;75.34
71344;BME280;59146;43.850;25.948;2024-03-07T04:36:16;101327.13;;;4.05;75.18
71344;BME280;59146;43.850;25.948;2024-03-07T04:38:41;101318.84;;;3.89;75.12
71344;BME280;59146;43.850;25.948;2024-03-07T04:41:11;101282.06;;;3.75;74.81
71344;BME280;59146;43.850;25.948;2024-03-07T04:43:36;101331.44;;;4.06;75.25
71344;BME280;59146;43.850;25.948;2024-03-07T04:46:02;101298.34;;;3.80;74.94
71344;BME280;59146;43.850;25.948;2024-03-07T04:48:28;101335.56;;;4.15;74.89
71344;BME280;59146;43.850;25.948;2024-03-07T04:50:53;101276.81;;;3.80;74.72
71344;BME280;59146;43.850;25.948;2024-03-07T04:53:19;101338.78;;;4.24;74.48
71344;BME280;59146;43.850;25.948;2024-03-07T04:55:44;101283.25;;;4.02;73.73
71344;BME280;59146;43.850;25.948;2024-03-07T04:58:09;101339.38;;;4.37;73.63
71344;BME280;59146;43.850;25.948;2024-03-07T05:00:35;101278.81;;;4.07;73.22
71344;BME280;59146;43.850;25.948;2024-03-07T05:03:00;101334.88;;;4.45;72.64
71344;BME280;59146;43.850;25.948;2024-03-07T05:05:26;101286.75;;;4.38;72.23
71344;BME280;59146;43.850;25.948;2024-03-07T05:07:52;101277.34;;;4.34;71.53
71344;BME280;59146;43.850;25.948;2024-03-07T05:10:18;101262.88;;;4.27;71.27
71344;BME280;59146;43.850;25.948;2024-03-07T05:12:43;101353.19;;;4.74;70.81
71344;BME280;59146;43.850;25.948;2024-03-07T05:15:08;101329.13;;;4.70;70.97
71344;BME280;59146;43.850;25.948;2024-03-07T05:17:37;101287.97;;;4.60;70.44
71344;BME280;59146;43.850;25.948;2024-03-07T05:20:05;101322.97;;;4.74;70.57
71344;BME280;59146;43.850;25.948;2024-03-07T05:22:41;101327.00;;;4.86;70.20
71344;BME280;59146;43.850;25.948;2024-03-07T05:25:09;101317.50;;;4.87;70.62
71344;BME280;59146;43.850;25.948;2024-03-07T05:27:35;101305.47;;;5.18;69.08
71344;BME280;59146;43.850;25.948;2024-03-07T05:30:02;101343.31;;;5.57;67.74
71344;BME280;59146;43.850;25.948;2024-03-07T05:32:31;101308.44;;;5.38;68.02
71344;BME280;59146;43.850;25.948;2024-03-07T05:34:59;101326.66;;;5.65;67.19
71344;BME280;59146;43.850;25.948;2024-03-07T05:37:24;101337.88;;;5.98;65.47
71344;BME280;59146;43.850;25.948;2024-03-07T05:39:51;101343.13;;;5.97;64.99
71344;BME280;59146;43.850;25.948;2024-03-07T05:42:17;101204.94;;;5.01;65.51
71344;BME280;59146;43.850;25.948;2024-03-07T05:44:46;101345.84;;;5.26;68.49
71344;BME280;59146;43.850;25.948;2024-03-07T05:47:13;101281.75;;;4.67;69.59
71344;BME280;59146;43.850;25.948;2024-03-07T05:49:39;101272.75;;;4.46;70.46
71344;BME280;59146;43.850;25.948;2024-03-07T05:52:04;101322.25;;;4.68;71.41
71344;BME280;59146;43.850;25.948;2024-03-07T05:54:34;101277.63;;;4.60;70.17
71344;BME280;59146;43.850;25.948;2024-03-07T05:57:00;101286.13;;;4.65;70.38
71344;BME280;59146;43.850;25.948;2024-03-07T05:59:26;101325.13;;;4.93;70.16
71344;BME280;59146;43.850;25.948;2024-03-07T06:01:53;101312.69;;;5.07;69.51
71344;BME280;59146;43.850;25.948;2024-03-07T06:04:19;101294.44;;;5.11;68.57
71344;BME280;59146;43.850;25.948;2024-03-07T06:06:45;101336.66;;;5.47;68.60
71344;BME280;59146;43.850;25.948;2024-03-07T06:09:13;101341.03;;;5.46;68.73
71344;BME280;59146;43.850;25.948;2024-03-07T06:11:39;101345.88;;;5.58;68.79
71344;BME280;59146;43.850;25.948;2024-03-07T06:14:07;101348.53;;;5.55;68.49
71344;BME280;59146;43.850;25.948;2024-03-07T06:16:36;101346.63;;;5.62;68.77
71344;BME280;59146;43.850;25.948;2024-03-07T06:19:04;101350.88;;;5.64;68.63
71344;BME280;59146;43.850;25.948;2024-03-07T06:21:32;101346.28;;;5.74;68.11
71344;BME280;59146;43.850;25.948;2024-03-07T06:23:58;101309.25;;;5.71;67.21
71344;BME280;59146;43.850;25.948;2024-03-07T06:26:30;101332.75;;;5.97;66.61
71344;BME280;59146;43.850;25.948;2024-03-07T06:29:18;101292.38;;;5.87;66.11
71344;BME280;59146;43.850;25.948;2024-03-07T06:31:45;101257.34;;;5.72;65.64
71344;BME280;59146;43.850;25.948;2024-03-07T06:34:14;101348.78;;;6.38;65.58
71344;BME280;59146;43.850;25.948;2024-03-07T06:36:40;101316.31;;;6.25;64.63
71344;BME280;59146;43.850;25.948;2024-03-07T06:39:06;101287.72;;;6.27;64.00
71344;BME280;59146;43.850;25.948;2024-03-07T06:41:34;101307.34;;;6.35;63.70
71344;BME280;59146;43.850;25.948;2024-03-07T06:44:00;101328.66;;;6.73;63.17
71344;BME280;59146;43.850;25.948;2024-03-07T06:46:25;101358.72;;;7.07;61.70
71344;BME280;59146;43.850;25.948;2024-03-07T06:48:51;101347.75;;;6.98;61.84
71344;BME280;59146;43.850;25.948;2024-03-07T06:51:17;101372.19;;;7.45;60.60
71344;BME280;59146;43.850;25.948;2024-03-07T06:53:45;101375.94;;;7.36;60.71
71344;BME280;59146;43.850;25.948;2024-03-07T06:56:14;101341.94;;;7.17;60.53
71344;BME280;59146;43.850;25.948;2024-03-07T06:58:42;101321.44;;;7.08;61.03
71344;BME280;59146;43.850;25.948;2024-03-07T07:01:08;101268.38;;;7.15;59.68
71344;BME280;59146;43.850;25.948;2024-03-07T07:03:36;101376.75;;;7.87;58.75
71344;BME280;59146;43.850;25.948;2024-03-07T07:06:03;101374.72;;;7.95;58.43
71344;BME280;59146;43.850;25.948;2024-03-07T07:08:31;101405.75;;;7.77;59.21
71344;BME280;59146;43.850;25.948;2024-03-07T07:10:57;101308.78;;;7.49;58.89
71344;BME280;59146;43.850;25.948;2024-03-07T07:13:23;101356.09;;;7.83;58.53
71344;BME280;59146;43.850;25.948;2024-03-07T07:15:49;101392.59;;;8.04;58.29
71344;BME280;59146;43.850;25.948;2024-03-07T07:18:15;101367.16;;;7.89;58.70
71344;BME280;59146;43.850;25.948;2024-03-07T07:20:40;101380.59;;;8.00;57.99
71344;BME280;59146;43.850;25.948;2024-03-07T07:23:06;101358.38;;;8.15;57.33
71344;BME280;59146;43.850;25.948;2024-03-07T07:25:32;101314.13;;;7.92;57.36
71344;BME280;59146;43.850;25.948;2024-03-07T07:27:58;101351.25;;;8.20;56.89
71344;BME280;59146;43.850;25.948;2024-03-07T07:30:24;101407.59;;;8.46;56.62
71344;BME280;59146;43.850;25.948;2024-03-07T07:32:51;101336.44;;;8.22;56.41
71344;BME280;59146;43.850;25.948;2024-03-07T07:35:17;101373.66;;;8.70;55.99
71344;BME280;59146;43.850;25.948;2024-03-07T07:37:47;101303.63;;;8.41;55.23
71344;BME280;59146;43.850;25.948;2024-03-07T07:40:22;101323.22;;;8.93;53.79
71344;BME280;59146;43.850;25.948;2024-03-07T07:42:50;101384.13;;;9.32;52.05
71344;BME280;59146;43.850;25.948;2024-03-07T07:45:18;101396.34;;;9.52;50.88
71344;BME280;59146;43.850;25.948;2024-03-07T07:47:53;101323.91;;;9.18;50.54
71344;BME280;59146;43.850;25.948;2024-03-07T07:50:21;101400.78;;;9.30;50.46
71344;BME280;59146;43.850;25.948;2024-03-07T07:52:48;101339.91;;;9.09;50.22
71344;BME280;59146;43.850;25.948;2024-03-07T07:55:15;101326.31;;;9.23;49.17
71344;BME280;59146;43.850;25.948;2024-03-07T07:57:46;101379.78;;;9.53;49.19
71344;BME280;59146;43.850;25.948;2024-03-07T08:00:17;101395.13;;;9.40;49.34
71344;BME280;59146;43.850;25.948;2024-03-07T08:05:22;101399.56;;;9.58;48.71
71344;BME280;59146;43.850;25.948;2024-03-07T08:07:52;101308.97;;;9.22;48.40
71344;BME280;59146;43.850;25.948;2024-03-07T08:10:19;101393.41;;;9.59;48.05
71344;BME280;59146;43.850;25.948;2024-03-07T08:12:45;101376.38;;;9.51;48.31
71344;BME280;59146;43.850;25.948;2024-03-07T08:15:12;101382.25;;;9.76;48.04
71344;BME280;59146;43.850;25.948;2024-03-07T08:17:42;101400.50;;;9.76;47.83
71344;BME280;59146;43.850;25.948;2024-03-07T08:20:13;101369.69;;;10.04;47.09
71344;BME280;59146;43.850;25.948;2024-03-07T08:22:42;101358.06;;;9.93;46.87
71344;BME280;59146;43.850;25.948;2024-03-07T08:25:13;101381.13;;;10.02;47.67
71344;BME280;59146;43.850;25.948;2024-03-07T08:27:40;101369.06;;;10.38;46.62
71344;BME280;59146;43.850;25.948;2024-03-07T08:30:07;101413.25;;;10.43;46.02
71344;BME280;59146;43.850;25.948;2024-03-07T08:32:39;101369.84;;;10.21;46.12
71344;BME280;59146;43.850;25.948;2024-03-07T08:35:06;101375.25;;;10.17;46.56
71344;BME280;59146;43.850;25.948;2024-03-07T08:37:35;101340.88;;;10.07;46.63
71344;BME280;59146;43.850;25.948;2024-03-07T08:40:02;101388.81;;;10.44;46.64
71344;BME280;59146;43.850;25.948;2024-03-07T08:42:33;101368.56;;;10.30;46.74
71344;BME280;59146;43.850;25.948;2024-03-07T08:45:03;101367.50;;;9.95;47.56
71344;BME280;59146;43.850;25.948;2024-03-07T08:47:34;101392.94;;;10.30;47.17
71344;BME280;59146;43.850;25.948;2024-03-07T08:50:01;101429.47;;;10.30;47.41
71344;BME280;59146;43.850;25.948;2024-03-07T08:52:33;101411.81;;;10.35;47.59
71344;BME280;59146;43.850;25.948;2024-03-07T08:55:00;101419.72;;;10.15;48.24
71344;BME280;59146;43.850;25.948;2024-03-07T08:57:26;101398.09;;;10.12;48.31
71344;BME280;59146;43.850;25.948;2024-03-07T08:59:52;101399.66;;;10.16;48.33
71344;BME280;59146;43.850;25.948;2024-03-07T09:02:18;101344.00;;;9.95;48.70
71344;BME280;59146;43.850;25.948;2024-03-07T09:04:43;101387.41;;;10.36;47.85
71344;BME280;59146;43.850;25.948;2024-03-07T09:07:09;101410.75;;;10.21;48.28
71344;BME280;59146;43.850;25.948;2024-03-07T09:09:35;101343.81;;;10.20;47.72
71344;BME280;59146;43.850;25.948;2024-03-07T09:12:01;101390.66;;;10.60;47.41
71344;BME280;59146;43.850;25.948;2024-03-07T09:14:30;101395.94;;;10.40;47.73
71344;BME280;59146;43.850;25.948;2024-03-07T09:16:56;101405.41;;;10.43;48.12
71344;BME280;59146;43.850;25.948;2024-03-07T09:19:24;101397.88;;;10.36;48.14
71344;BME280;59146;43.850;25.948;2024-03-07T09:21:52;101398.47;;;10.60;47.49
71344;BME280;59146;43.850;25.948;2024-03-07T09:24:30;101340.63;;;10.86;46.61
71344;BME280;59146;43.850;25.948;2024-03-07T09:27:06;101377.63;;;10.77;46.90
71344;BME280;59146;43.850;25.948;2024-03-07T09:29:34;101387.94;;;10.99;46.87
71344;BME280;59146;43.850;25.948;2024-03-07T09:32:00;101372.41;;;11.13;46.30
71344;BME280;59146;43.850;25.948;2024-03-07T09:34:27;101351.94;;;11.21;46.05
71344;BME280;59146;43.850;25.948;2024-03-07T09:36:53;101402.88;;;11.48;45.06
71344;BME280;59146;43.850;25.948;2024-03-07T09:39:19;101373.66;;;11.23;45.43
71344;BME280;59146;43.850;25.948;2024-03-07T09:41:45;101362.13;;;10.91;45.78
71344;BME280;59146;43.850;25.948;2024-03-07T09:44:15;101376.81;;;11.30;45.90
71344;BME280;59146;43.850;25.948;2024-03-07T09:46:50;101379.50;;;11.45;44.83
71344;BME280;59146;43.850;25.948;2024-03-07T09:49:17;101366.44;;;11.28;45.12
71344;BME280;59146;43.850;25.948;2024-03-07T09:51:47;101332.63;;;11.06;45.31
71344;BME280;59146;43.850;25.948;2024-03-07T09:54:13;101375.19;;;11.27;45.40
71344;BME280;59146;43.850;25.948;2024-03-07T09:56:41;101382.91;;;11.47;45.34
71344;BME280;59146;43.850;25.948;2024-03-07T09:59:11;101395.03;;;11.48;45.44
71344;BME280;59146;43.850;25.948;2024-03-07T10:01:38;101351.94;;;11.04;45.59
71344;BME280;59146;43.850;25.948;2024-03-07T10:04:05;101361.91;;;10.96;46.40
71344;BME280;59146;43.850;25.948;2024-03-07T10:06:43;101336.41;;;11.01;46.34
71344;BME280;59146;43.850;25.948;2024-03-07T10:09:11;101375.09;;;11.63;44.94
71344;BME280;59146;43.850;25.948;2024-03-07T10:11:40;101371.66;;;11.79;44.43
71344;BME280;59146;43.850;25.948;2024-03-07T10:14:07;101317.09;;;11.38;45.17
71344;BME280;59146;43.850;25.948;2024-03-07T10:16:32;101318.81;;;11.22;45.44
71344;BME280;59146;43.850;25.948;2024-03-07T10:18:59;101387.69;;;11.73;45.21
71344;BME280;59146;43.850;25.948;2024-03-07T10:21:27;101397.38;;;11.88;45.01
71344;BME280;59146;43.850;25.948;2024-03-07T10:24:08;101361.88;;;11.83;44.38
71344;BME280;59146;43.850;25.948;2024-03-07T10:26:35;101342.72;;;11.48;45.12
71344;BME280;59146;43.850;25.948;2024-03-07T10:29:01;101363.13;;;11.76;44.86
71344;BME280;59146;43.850;25.948;2024-03-07T10:31:31;101363.63;;;12.00;44.75
71344;BME280;59146;43.850;25.948;2024-03-07T10:34:04;101329.81;;;11.95;44.40
71344;BME280;59146;43.850;25.948;2024-03-07T10:36:30;101343.16;;;11.90;44.65
71344;BME280;59146;43.850;25.948;2024-03-07T10:39:00;101320.56;;;11.38;45.44
71344;BME280;59146;43.850;25.948;2024-03-07T10:41:48;101194.72;;;10.60;44.92
71344;BME280;59146;43.850;25.948;2024-03-07T10:44:23;101341.63;;;11.52;45.09
71344;BME280;59146;43.850;25.948;2024-03-07T10:46:55;101371.19;;;11.54;45.40
71344;BME280;59146;43.850;25.948;2024-03-07T10:49:25;101350.56;;;11.31;45.71
71344;BME280;59146;43.850;25.948;2024-03-07T10:52:01;101392.56;;;11.11;46.38
71344;BME280;59146;43.850;25.948;2024-03-07T10:57:15;101379.69;;;11.76;45.71
71344;BME280;59146;43.850;25.948;2024-03-07T10:59:50;101370.44;;;11.69;45.32
71344;BME280;59146;43.850;25.948;2024-03-07T11:04:47;101293.81;;;10.99;46.23
71344;BME280;59146;43.850;25.948;2024-03-07T11:07:14;101369.06;;;11.62;45.72
71344;BME280;59146;43.850;25.948;2024-03-07T11:09:40;101391.38;;;11.69;45.48
71344;BME280;59146;43.850;25.948;2024-03-07T11:12:08;101368.59;;;11.37;46.09
71344;BME280;59146;43.850;25.948;2024-03-07T11:14:36;101354.03;;;11.14;46.58
71344;BME280;59146;43.850;25.948;2024-03-07T11:17:03;101374.41;;;11.25;46.41
71344;BME280;59146;43.850;25.948;2024-03-07T11:19:31;101301.97;;;11.10;46.40
71344;BME280;59146;43.850;25.948;2024-03-07T11:22:02;101311.44;;;10.95;46.58
71344;BME280;59146;43.850;25.948;2024-03-07T11:24:31;101228.25;;;10.33;47.02
71344;BME280;59146;43.850;25.948;2024-03-07T11:27:03;101325.31;;;10.96;46.70
71344;BME280;59146;43.850;25.948;2024-03-07T11:29:40;101367.97;;;11.32;46.40
71344;BME280;59146;43.850;25.948;2024-03-07T11:32:18;101281.63;;;10.64;46.48
71344;BME280;59146;43.850;25.948;2024-03-07T11:34:46;101356.69;;;10.96;47.18
71344;BME280;59146;43.850;25.948;2024-03-07T11:37:39;101355.66;;;11.17;46.63
71344;BME280;59146;43.850;25.948;2024-03-07T11:40:10;101349.19;;;11.07;46.31
71344;BME280;59146;43.850;25.948;2024-03-07T11:42:44;101350.34;;;11.01;46.70
71344;BME280;59146;43.850;25.948;2024-03-07T11:45:11;101350.69;;;10.94;46.85
71344;BME280;59146;43.850;25.948;2024-03-07T11:47:45;101351.16;;;10.85;47.29
71344;BME280;59146;43.850;25.948;2024-03-07T11:50:11;101338.69;;;10.90;47.29
71344;BME280;59146;43.850;25.948;2024-03-07T11:52:37;101364.25;;;11.19;46.74
71344;BME280;59146;43.850;25.948;2024-03-07T11:55:07;101349.28;;;11.23;47.23
71344;BME280;59146;43.850;25.948;2024-03-07T11:57:33;101312.88;;;10.84;47.46
71344;BME280;59146;43.850;25.948;2024-03-07T12:00:00;101351.06;;;10.86;47.47
71344;BME280;59146;43.850;25.948;2024-03-07T12:02:27;101297.94;;;10.86;46.87
71344;BME280;59146;43.850;25.948;2024-03-07T12:04:53;101309.19;;;11.05;46.36
71344;BME280;59146;43.850;25.948;2024-03-07T12:07:19;101309.84;;;10.91;46.75
71344;BME280;59146;43.850;25.948;2024-03-07T12:09:48;101292.66;;;10.70;46.94
71344;BME280;59146;43.850;25.948;2024-03-07T12:12:21;101316.81;;;11.09;46.66
71344;BME280;59146;43.850;25.948;2024-03-07T12:14:48;101345.81;;;11.39;46.25
71344;BME280;59146;43.850;25.948;2024-03-07T12:17:17;101315.09;;;10.91;47.20
71344;BME280;59146;43.850;25.948;2024-03-07T12:19:43;101277.78;;;10.71;46.91
71344;BME280;59146;43.850;25.948;2024-03-07T12:22:09;101330.13;;;11.39;46.55
71344;BME280;59146;43.850;25.948;2024-03-07T12:24:38;101343.66;;;11.47;46.83
71344;BME280;59146;43.850;25.948;2024-03-07T12:27:12;101304.09;;;11.02;47.53
71344;BME280;59146;43.850;25.948;2024-03-07T12:29:39;101322.19;;;11.06;48.18
71344;BME280;59146;43.850;25.948;2024-03-07T12:32:09;101287.34;;;10.72;48.51
71344;BME280;59146;43.850;25.948;2024-03-07T12:34:39;101339.63;;;10.89;49.60
71344;BME280;59146;43.850;25.948;2024-03-07T12:37:13;101304.81;;;10.53;50.20
71344;BME280;59146;43.850;25.948;2024-03-07T12:39:43;101340.06;;;10.80;50.59
71344;BME280;59146;43.850;25.948;2024-03-07T12:42:15;101291.28;;;10.45;50.89
71344;BME280;59146;43.850;25.948;2024-03-07T12:44:45;101330.38;;;10.46;52.04
71344;BME280;59146;43.850;25.948;2024-03-07T12:47:17;101336.44;;;10.47;53.08
71344;BME280;59146;43.850;25.948;2024-03-07T12:49:46;101331.56;;;10.20;54.37
71344;BME280;59146;43.850;25.948;2024-03-07T12:52:12;101341.13;;;10.21;56.44
71344;BME280;59146;43.850;25.948;2024-03-07T12:54:40;101287.94;;;10.04;55.87
71344;BME280;59146;43.850;25.948;2024-03-07T12:57:09;101279.88;;;9.71;58.45